Time;durP1;ratioP1;P1;durP2;ratioP2;P2;SDS_P1;SDS_P2;PMS_P1;PMS_P2;Temp;Humidity;BMP_temperature;BMP_pressure;BME280_temperature;BME280_humidity;BME280_pressure;Samples;Min_cycle;Max_cycle;Signal;HPM_P1;HPM_P2
2022/05/22 00:01:47;;;;;;;2.25;1.20;;;;;;;17.43;49.05;99742.81;4194703;34;35080;-71
2022/05/22 00:04:33;;;;;;;2.72;1.40;;;;;;;17.80;48.06;99742.63;4184846;34;34356;-70
2022/05/22 00:07:20;;;;;;;3.95;1.23;;;;;;;17.80;48.86;99746.19;4194370;34;35238;-71
2022/05/22 00:10:08;;;;;;;1.95;1.45;;;;;;;17.61;48.63;99741.31;4185775;34;36087;-71
2022/05/22 00:12:54;;;;;;;2.97;1.23;;;;;;;17.97;49.24;99736.72;4185686;34;34530;-71
2022/05/22 00:16:36;;;;;;;2.60;1.30;;;;;;;16.63;51.98;99733.38;4186411;34;34448;-71
2022/05/22 00:18:46;;;;;;;3.28;1.30;;;;;;;17.38;50.64;99730.00;4192479;34;35650;-71
2022/05/22 00:21:35;;;;;;;1.80;1.20;;;;;;;17.53;50.04;99726.47;4185375;34;35667;-71
2022/05/22 00:24:23;;;;;;;3.00;1.42;;;;;;;17.81;49.73;99725.63;4193445;34;35124;-71
2022/05/22 00:27:10;;;;;;;4.65;1.15;;;;;;;17.45;50.31;99715.56;4183801;34;34020;-70
2022/05/22 00:29:56;;;;;;;4.37;1.42;;;;;;;17.72;49.65;99716.66;4185706;34;35497;-71
2022/05/22 00:32:42;;;;;;;1.90;1.50;;;;;;;17.42;50.25;99714.31;4184534;34;36034;-70
2022/05/22 00:35:30;;;;;;;2.37;1.30;;;;;;;17.24;50.81;99713.81;4183456;34;34415;-71
2022/05/22 00:38:16;;;;;;;3.90;1.50;;;;;;;17.05;51.29;99710.91;4184983;34;35416;-71
2022/05/22 00:41:04;;;;;;;2.22;1.25;;;;;;;16.27;54.03;99717.66;4184318;34;35715;-71
2022/05/22 00:43:55;;;;;;;2.95;1.42;;;;;;;16.87;51.91;99715.94;4195009;34;35081;-70
2022/05/22 00:46:41;;;;;;;3.30;1.55;;;;;;;16.41;53.48;99718.09;4186776;34;34847;-70
2022/05/22 00:49:33;;;;;;;2.40;1.48;;;;;;;15.91;55.15;99722.84;4187366;34;34355;-71
2022/05/22 00:52:27;;;;;;;3.10;1.60;;;;;;;16.29;54.26;99723.66;4194234;34;34623;-71
2022/05/22 00:55:16;;;;;;;2.03;1.40;;;;;;;15.91;55.29;99720.09;4196053;34;35050;-70
2022/05/22 00:58:24;;;;;;;3.40;1.30;;;;;;;16.13;55.05;99720.75;4194297;34;35710;-71
2022/05/22 01:01:10;;;;;;;5.60;1.73;;;;;;;16.24;54.73;99715.59;4195257;34;34380;-71
2022/05/22 01:03:57;;;;;;;3.83;1.50;;;;;;;15.91;55.06;99720.09;4187530;34;35105;-70
2022/05/22 01:06:44;;;;;;;5.85;1.50;;;;;;;16.21;54.51;99721.81;4196191;34;34912;-71
2022/05/22 01:09:32;;;;;;;5.97;1.60;;;;;;;16.37;54.39;99723.53;4195847;34;35681;-70
2022/05/22 01:12:23;;;;;;;2.72;1.45;;;;;;;16.48;53.59;99721.09;4185646;34;34394;-70
2022/05/22 01:15:12;;;;;;;4.05;1.50;;;;;;;16.28;53.09;99717.31;4184672;34;34695;-70
2022/05/22 01:17:59;;;;;;;2.08;1.17;;;;;;;16.63;52.30;99701.00;4195017;34;34935;-71
2022/05/22 01:20:50;;;;;;;2.60;1.30;;;;;;;16.54;53.00;99721.66;4186823;34;35867;-71
2022/05/22 01:23:39;;;;;;;3.53;1.50;;;;;;;16.02;53.90;99714.88;4184687;34;34320;-70
2022/05/22 01:26:28;;;;;;;2.17;1.23;;;;;;;15.37;55.24;99722.12;4186368;34;34217;-70
2022/05/22 01:29:18;;;;;;;2.53;1.37;;;;;;;15.79;54.92;99713.72;4193945;34;34839;-70
2022/05/22 01:32:05;;;;;;;2.90;1.15;;;;;;;15.77;55.01;99716.03;4183166;34;35351;-71
2022/05/22 01:34:52;;;;;;;1.87;1.10;;;;;;;16.41;53.26;99709.78;4194690;34;34388;-70
2022/05/22 01:37:40;;;;;;;2.35;1.40;;;;;;;16.44;52.94;99709.09;4175714;34;34100;-70
2022/05/22 01:40:27;;;;;;;2.17;1.30;;;;;;;16.19;53.28;99709.16;4185575;34;34962;-70
2022/05/22 01:43:14;;;;;;;3.42;1.35;;;;;;;16.71;52.30;99702.00;4185912;34;34621;-71
2022/05/22 01:46:02;;;;;;;1.50;1.10;;;;;;;16.80;52.25;99701.91;4186298;34;35307;-70
2022/05/22 01:48:49;;;;;;;3.15;1.35;;;;;;;17.02;51.39;99701.34;4185549;34;34585;-70
2022/05/22 01:51:38;;;;;;;3.97;1.40;;;;;;;16.25;52.80;99706.13;4186493;34;36053;-70
2022/05/22 01:54:25;;;;;;;2.55;1.08;;;;;;;16.49;52.92;99700.56;4193777;34;34280;-70
2022/05/22 01:57:14;;;;;;;5.75;1.10;;;;;;;16.80;50.24;99707.44;4194746;34;34901;-71
2022/05/22 02:00:00;;;;;;;2.37;1.12;;;;;;;16.29;51.00;99709.81;4175842;34;34098;-70
2022/05/22 02:02:47;;;;;;;4.65;1.40;;;;;;;16.17;50.87;99700.38;4174817;34;35071;-70
2022/05/22 02:05:35;;;;;;;3.95;1.27;;;;;;;16.71;51.46;99701.22;4175588;34;35757;-70
2022/05/22 02:08:22;;;;;;;2.25;1.05;;;;;;;16.88;51.55;99700.94;4185122;34;35274;-70
2022/05/22 02:11:09;;;;;;;3.33;1.35;;;;;;;16.80;51.77;99693.59;4185471;34;34627;-70
2022/05/22 02:13:56;;;;;;;4.32;1.20;;;;;;;16.88;52.11;99695.41;4186516;34;35144;-70
2022/05/22 02:16:43;;;;;;;5.05;1.10;;;;;;;16.82;50.69;99697.63;4194593;34;34936;-71
2022/05/22 02:19:29;;;;;;;3.67;1.30;;;;;;;15.61;53.60;99693.78;4184610;34;34275;-70
2022/05/22 02:22:15;;;;;;;3.22;1.27;;;;;;;15.91;53.25;99697.19;4185705;34;35229;-70
2022/05/22 02:25:01;;;;;;;1.98;1.20;;;;;;;16.38;52.74;99696.66;4185775;34;33854;-70
2022/05/22 02:27:48;;;;;;;4.05;1.42;;;;;;;15.70;54.44;99692.53;4186049;34;34912;-70
2022/05/22 02:30:37;;;;;;;2.03;1.27;;;;;;;15.41;54.63;99696.28;4185000;34;33871;-70
2022/05/22 02:33:24;;;;;;;9.35;1.48;;;;;;;14.65;56.99;99697.47;4184402;34;34787;-70
2022/05/22 02:36:13;;;;;;;1.62;1.08;;;;;;;15.47;55.20;99699.62;4185140;34;35136;-70
2022/05/22 02:39:02;;;;;;;2.53;1.35;;;;;;;15.29;55.03;99699.00;4193238;34;35841;-70
2022/05/22 02:41:49;;;;;;;2.37;1.20;;;;;;;15.23;55.57;99708.66;4185970;34;34249;-71
2022/05/22 02:44:36;;;;;;;2.62;1.30;;;;;;;15.06;56.43;99715.16;4185756;34;34624;-70
2022/05/22 02:47:22;;;;;;;2.78;1.50;;;;;;;14.75;57.28;99697.09;4185399;34;36062;-70
2022/05/22 02:50:10;;;;;;;5.43;1.35;;;;;;;14.95;56.37;99698.22;4186133;34;34532;-70
2022/05/22 02:52:57;;;;;;;4.30;1.20;;;;;;;15.11;55.36;99701.13;4184609;34;34492;-70
2022/05/22 02:55:44;;;;;;;1.92;1.10;;;;;;;15.49;53.66;99703.66;4193791;34;35206;-70
2022/05/22 02:58:31;;;;;;;5.93;1.10;;;;;;;15.34;53.15;99707.09;4185285;34;35115;-70
2022/05/22 03:01:17;;;;;;;3.62;1.15;;;;;;;15.45;52.20;99705.50;4185613;34;35762;-69
2022/05/22 03:04:04;;;;;;;2.30;1.08;;;;;;;15.17;51.87;99713.59;4193468;34;34987;-70
2022/05/22 03:06:50;;;;;;;3.58;1.20;;;;;;;15.42;51.33;99706.16;4185621;34;34572;-70
2022/05/22 03:09:40;;;;;;;3.78;1.00;;;;;;;15.07;52.08;99708.47;4184957;34;35945;-71
2022/05/22 03:12:26;;;;;;;3.47;1.20;;;;;;;15.16;51.66;99705.63;4185871;34;35732;-70
2022/05/22 03:15:14;;;;;;;3.58;1.08;;;;;;;15.69;50.31;99712.25;4185831;34;34294;-70
2022/05/22 03:18:00;;;;;;;1.08;0.90;;;;;;;15.17;51.48;99708.06;4184467;34;34100;-70
2022/05/22 03:20:46;;;;;;;1.42;0.93;;;;;;;15.38;51.02;99715.47;4193890;34;34995;-70
2022/05/22 03:23:35;;;;;;;3.87;1.15;;;;;;;15.10;51.42;99713.31;4185270;34;34499;-71
2022/05/22 03:26:22;;;;;;;3.17;1.15;;;;;;;15.22;51.44;99707.81;4186387;34;34403;-71
2022/05/22 03:29:08;;;;;;;4.20;1.15;;;;;;;15.81;49.63;99703.94;4184834;34;34101;-70
2022/05/22 03:31:55;;;;;;;3.78;1.30;;;;;;;15.48;50.20;99701.22;4174721;34;34649;-70
2022/05/22 03:34:42;;;;;;;5.12;1.20;;;;;;;15.43;50.31;99705.03;4186483;34;35806;-70
2022/05/22 03:37:29;;;;;;;2.85;1.05;;;;;;;15.69;50.28;99704.75;4184337;34;35197;-70
2022/05/22 03:40:15;;;;;;;3.55;1.10;;;;;;;15.60;50.40;99704.03;4185302;34;34679;-70
2022/05/22 03:43:02;;;;;;;2.20;1.02;;;;;;;15.79;50.13;99716.50;4185380;34;36002;-70
2022/05/22 03:45:49;;;;;;;3.25;1.25;;;;;;;16.13;49.53;99715.25;4184560;34;35470;-71
2022/05/22 03:48:37;;;;;;;5.82;1.12;;;;;;;15.78;50.51;99718.47;4185888;34;35512;-70
2022/05/22 03:51:23;;;;;;;2.62;1.00;;;;;;;16.18;49.51;99724.09;4186180;34;34711;-70
2022/05/22 03:54:11;;;;;;;2.70;1.20;;;;;;;15.98;50.09;99730.56;4195238;34;35936;-70
2022/05/22 03:56:58;;;;;;;2.80;1.10;;;;;;;15.89;50.43;99732.63;4185481;34;34881;-70
2022/05/22 03:59:44;;;;;;;4.62;1.20;;;;;;;16.12;50.10;99731.03;4185862;34;34318;-70
2022/05/22 04:02:31;;;;;;;4.55;1.20;;;;;;;15.43;51.63;99734.59;4194386;34;34621;-70
2022/05/22 04:05:19;;;;;;;2.55;1.30;;;;;;;15.66;51.61;99730.28;4185362;34;36068;-70
2022/05/22 04:08:06;;;;;;;4.22;1.23;;;;;;;15.41;52.07;99737.69;4185127;34;35656;-70
2022/05/22 04:10:54;;;;;;;2.08;1.15;;;;;;;15.59;51.82;99745.78;4193591;34;33983;-71
2022/05/22 04:13:41;;;;;;;4.57;1.42;;;;;;;16.02;50.74;99739.75;4180480;34;34567;-71
2022/05/22 04:16:28;;;;;;;12.85;1.95;;;;;;;16.02;50.95;99738.97;4184668;34;35147;-70
2022/05/22 04:19:15;;;;;;;1.77;1.10;;;;;;;15.46;52.71;99743.00;4184106;34;35137;-71
2022/05/22 04:22:02;;;;;;;2.78;1.80;;;;;;;15.58;52.58;99744.97;4186018;34;35238;-70
2022/05/22 04:27:53;;;;;;;5.30;1.85;;;;;;;15.74;51.39;99748.72;4185114;34;34700;-70
2022/05/22 04:30:40;;;;;;;4.20;1.37;;;;;;;15.96;51.35;99749.44;4195128;34;34359;-70
2022/05/22 04:33:27;;;;;;;4.93;1.20;;;;;;;15.25;53.23;99745.81;4185884;34;34324;-70
2022/05/22 04:36:13;;;;;;;2.72;1.42;;;;;;;15.50;53.09;99745.88;4184106;34;35523;-71
2022/05/22 04:38:59;;;;;;;5.72;1.30;;;;;;;15.77;52.25;99752.78;4185398;34;35056;-71
2022/05/22 04:41:46;;;;;;;5.60;1.50;;;;;;;15.36;53.79;99745.38;4184787;34;36404;-70
2022/05/22 04:44:33;;;;;;;2.42;1.20;;;;;;;15.45;53.45;99743.31;4184819;34;34352;-70
2022/05/22 04:47:21;;;;;;;3.75;1.45;;;;;;;15.72;53.07;99745.50;4184715;34;34651;-71
2022/05/22 04:50:14;;;;;;;2.53;1.40;;;;;;;15.57;54.40;99746.12;4174856;34;34867;-70
2022/05/22 04:53:10;;;;;;;2.92;1.70;;;;;;;15.08;55.79;99748.72;4183815;34;34597;-71
2022/05/22 04:55:57;;;;;;;2.47;1.65;;;;;;;15.50;54.40;99748.63;4185399;34;35395;-70
2022/05/22 04:58:45;;;;;;;5.72;1.70;;;;;;;14.87;56.39;99751.50;4184494;34;34251;-70
2022/05/22 05:01:31;;;;;;;2.80;1.42;;;;;;;15.17;55.30;99756.91;4183731;34;36012;-70
2022/05/22 05:04:19;;;;;;;3.80;1.27;;;;;;;14.92;56.22;99756.03;4185545;34;35732;-70
2022/05/22 05:07:07;;;;;;;3.47;1.23;;;;;;;15.70;54.29;99753.31;4185253;34;34486;-71
2022/05/22 05:09:56;;;;;;;3.65;1.40;;;;;;;15.55;54.75;99747.63;4182237;34;34593;-70
2022/05/22 05:12:44;;;;;;;3.33;1.40;;;;;;;15.29;55.28;99748.69;4188082;34;35010;-70
2022/05/22 05:15:32;;;;;;;5.97;1.50;;;;;;;14.58;57.31;99755.94;4185118;34;35916;-71
2022/05/22 05:18:19;;;;;;;4.72;1.50;;;;;;;14.98;57.08;99749.16;4184543;34;34373;-70
2022/05/22 05:21:08;;;;;;;3.40;2.00;;;;;;;15.07;56.72;99750.66;4184904;34;34685;-70
2022/05/22 05:23:56;;;;;;;3.25;1.35;;;;;;;15.14;57.96;99750.16;4184071;34;34963;-70
2022/05/22 05:26:42;;;;;;;4.28;1.45;;;;;;;15.25;57.08;99756.03;4184649;34;35861;-70
2022/05/22 05:29:28;;;;;;;2.95;1.50;;;;;;;15.36;56.13;99748.13;4186420;34;34287;-71
2022/05/22 05:32:19;;;;;;;2.00;1.40;;;;;;;15.29;56.68;99743.19;4186546;34;34786;-70
2022/05/22 05:35:09;;;;;;;3.17;1.27;;;;;;;15.40;56.51;99754.59;4195602;34;35487;-70
2022/05/22 05:37:55;;;;;;;3.50;1.17;;;;;;;15.36;56.51;99756.41;4186207;34;34845;-71
2022/05/22 05:40:42;;;;;;;3.95;1.60;;;;;;;15.52;56.71;99760.16;4186898;34;35408;-71
2022/05/22 05:43:30;;;;;;;2.92;1.40;;;;;;;15.74;55.67;99757.03;4186584;34;33439;-70
2022/05/22 05:46:17;;;;;;;3.15;1.48;;;;;;;16.00;56.21;99760.62;4186741;34;33889;-70
2022/05/22 05:49:05;;;;;;;2.78;1.42;;;;;;;15.09;57.71;99761.38;4186797;34;33112;-70
2022/05/22 05:51:51;;;;;;;3.55;1.65;;;;;;;15.05;58.55;99758.50;4186905;34;35421;-71
2022/05/22 05:54:59;;;;;;;4.50;1.75;;;;;;;15.35;57.64;99761.12;4185992;34;34779;-71
2022/05/22 05:57:47;;;;;;;3.95;1.55;;;;;;;15.58;57.28;99767.06;4186197;34;35064;-70
2022/05/22 06:00:34;;;;;;;2.20;1.58;;;;;;;15.40;57.04;99765.66;4185553;34;34841;-70
2022/05/22 06:03:20;;;;;;;3.33;1.50;;;;;;;15.43;57.09;99762.22;4185537;34;34901;-72
2022/05/22 06:06:12;;;;;;;3.00;1.40;;;;;;;15.49;56.86;99760.84;4186442;34;34795;-71
2022/05/22 06:09:02;;;;;;;3.08;1.87;;;;;;;15.93;54.94;99758.41;4186910;34;35161;-71
2022/05/22 06:11:48;;;;;;;1.55;1.20;;;;;;;16.12;55.22;99764.19;4184828;34;34473;-70
2022/05/22 06:14:35;;;;;;;4.82;1.70;;;;;;;16.16;53.42;99751.28;4185860;34;35277;-70
2022/05/22 06:17:32;;;;;;;3.05;1.50;;;;;;;15.79;54.95;99752.41;4184329;34;34532;-72
2022/05/22 06:20:19;;;;;;;4.22;1.33;;;;;;;16.23;55.23;99752.69;4194721;34;34947;-71
2022/05/22 06:23:05;;;;;;;3.37;1.50;;;;;;;15.44;55.71;99752.78;4186418;34;35457;-71
2022/05/22 06:25:53;;;;;;;3.58;1.60;;;;;;;15.59;56.10;99763.16;4187149;34;34356;-71
2022/05/22 06:28:40;;;;;;;5.97;1.75;;;;;;;15.69;54.78;99760.00;4192806;34;33447;-71
2022/05/22 06:31:28;;;;;;;4.12;1.37;;;;;;;16.30;53.16;99763.97;4186407;34;33691;-71
2022/05/22 06:34:15;;;;;;;2.50;1.50;;;;;;;15.51;55.52;99755.75;4194459;34;36241;-71
2022/05/22 06:37:03;;;;;;;3.17;1.33;;;;;;;16.29;54.49;99759.59;4186251;34;34415;-71
2022/05/22 06:39:50;;;;;;;4.20;1.75;;;;;;;16.29;53.86;99738.28;4195207;34;34755;-71
2022/05/22 06:42:42;;;;;;;4.85;1.70;;;;;;;16.29;53.31;99751.28;4193804;34;36030;-71
2022/05/22 06:45:30;;;;;;;3.15;1.40;;;;;;;16.23;53.43;99749.91;4193484;34;35297;-71
2022/05/22 06:48:18;;;;;;;4.22;1.58;;;;;;;16.01;53.84;99757.50;4194268;34;35274;-71
2022/05/22 06:51:06;;;;;;;4.65;1.50;;;;;;;16.16;53.24;99748.50;4185012;34;35135;-72
2022/05/22 06:53:54;;;;;;;2.58;1.27;;;;;;;16.74;52.37;99755.84;4185489;34;34386;-71
2022/05/22 06:56:41;;;;;;;3.40;1.50;;;;;;;16.97;51.86;99747.84;4184889;34;34926;-71
2022/05/22 06:59:30;;;;;;;6.28;1.30;;;;;;;17.10;50.99;99743.88;4192859;34;34086;-71
2022/05/22 07:02:18;;;;;;;3.97;2.00;;;;;;;17.46;50.28;99742.91;4193985;34;34540;-71
2022/05/22 07:05:05;;;;;;;2.25;1.20;;;;;;;17.12;51.91;99738.00;4194958;34;34408;-71
2022/05/22 07:07:51;;;;;;;3.97;1.52;;;;;;;17.14;49.35;99741.22;4191675;34;34852;-71
2022/05/22 07:13:43;;;;;;;3.95;1.30;;;;;;;16.63;51.24;99736.94;4183165;34;34665;-72
2022/05/22 07:16:31;;;;;;;2.42;1.20;;;;;;;16.88;51.12;99739.69;4184799;34;35942;-73
2022/05/22 07:19:18;;;;;;;3.30;1.40;;;;;;;17.68;48.56;99724.06;4183268;34;34455;-73
2022/05/22 07:22:06;;;;;;;9.25;3.28;;;;;;;17.71;46.69;99726.13;4182877;34;34760;-73
2022/05/22 07:24:53;;;;;;;5.90;1.60;;;;;;;17.89;47.12;99727.41;4183403;34;35537;-73
2022/05/22 07:27:41;;;;;;;6.20;1.58;;;;;;;17.09;48.40;99723.69;4179435;34;35017;-73
2022/05/22 07:30:27;;;;;;;5.10;1.83;;;;;;;17.36;47.52;99724.03;4191414;34;34932;-73
2022/05/22 07:33:13;;;;;;;4.10;1.42;;;;;;;17.51;47.90;99714.94;4184616;34;34967;-73
2022/05/22 07:36:00;;;;;;;3.42;1.20;;;;;;;18.00;47.18;99721.34;4184394;34;33412;-72
2022/05/22 07:38:47;;;;;;;4.35;1.40;;;;;;;17.71;46.92;99721.38;4184927;34;35957;-72
2022/05/22 07:41:35;;;;;;;3.80;1.33;;;;;;;18.25;45.92;99719.16;4193869;34;35833;-72
2022/05/22 07:44:22;;;;;;;4.62;1.37;;;;;;;18.19;44.30;99726.94;4184888;34;34423;-73
2022/05/22 07:47:08;;;;;;;2.97;1.20;;;;;;;18.36;43.83;99711.87;4183680;34;34590;-73
2022/05/22 07:50:17;;;;;;;;;;;;;;;18.15;44.53;99712.19;4193247;34;35072;-73
2022/05/22 07:53:04;;;;;;;3.08;1.30;;;;;;;18.86;45.32;99708.25;4183510;34;36053;-73
2022/05/22 07:55:51;;;;;;;3.62;1.10;;;;;;;18.33;43.62;99701.53;4183363;34;35486;-72
2022/05/22 07:58:39;;;;;;;4.20;1.23;;;;;;;18.61;42.57;99701.31;4182193;34;34173;-73
2022/05/22 08:01:25;;;;;;;3.50;1.27;;;;;;;18.77;42.51;99699.31;4183773;34;35945;-73
2022/05/22 08:04:13;;;;;;;2.12;0.90;;;;;;;18.75;42.31;99696.09;4185541;34;34484;-73
2022/05/22 08:07:01;;;;;;;3.53;1.20;;;;;;;18.85;42.06;99697.50;4185538;34;34374;-74
2022/05/22 08:09:48;;;;;;;3.67;1.10;;;;;;;18.39;41.71;99706.41;4185271;34;34738;-74
2022/05/22 08:12:40;;;;;;;3.28;1.20;;;;;;;18.66;42.20;99693.50;4186288;34;34503;-73
2022/05/22 08:15:30;;;;;;;4.65;1.05;;;;;;;19.24;41.85;99695.53;4184054;34;34872;-74
2022/05/22 08:18:17;;;;;;;3.12;1.00;;;;;;;19.43;42.39;99677.19;4182435;34;33974;-73
2022/05/22 08:21:04;;;;;;;2.37;1.17;;;;;;;19.68;41.82;99681.22;4192586;34;34254;-74
2022/05/22 08:23:51;;;;;;;3.53;1.00;;;;;;;19.25;40.37;99683.22;4184806;34;34914;-75
2022/05/22 08:26:38;;;;;;;5.07;1.00;;;;;;;19.24;40.13;99684.41;4184895;34;34903;-72
2022/05/22 08:29:25;;;;;;;3.67;0.80;;;;;;;19.37;40.30;99684.22;4184361;34;34405;-74
2022/05/22 08:32:11;;;;;;;2.45;0.90;;;;;;;19.38;38.94;99671.94;4182772;34;35628;-73
2022/05/22 08:34:57;;;;;;;2.53;0.82;;;;;;;19.73;39.37;99682.91;4182715;34;35080;-73
2022/05/22 08:37:44;;;;;;;3.55;1.00;;;;;;;19.39;38.59;99676.34;4183901;34;34839;-74
2022/05/22 08:41:04;;;;;;;4.47;1.30;;;;;;;19.07;39.08;99673.75;4192504;34;34338;-73
2022/05/22 08:43:56;;;;;;;3.83;0.93;;;;;;;19.57;39.82;99668.31;4183505;34;34688;-72
2022/05/22 08:46:57;;;;;;;6.97;1.00;;;;;;;19.47;40.68;99666.97;4193256;34;34383;-72
2022/05/22 08:49:58;;;;;;;4.60;1.17;;;;;;;19.57;39.74;99669.09;4191812;34;35409;-74
2022/05/22 08:52:52;;;;;;;2.87;0.90;;;;;;;19.82;39.76;99664.00;4183966;34;34278;-72
2022/05/22 08:58:58;;;;;;;6.00;0.90;;;;;;;20.08;39.21;99671.53;4182965;34;35539;-73
2022/05/22 09:02:23;;;;;;;5.43;1.20;;;;;;;19.86;38.93;99661.25;4180961;34;35070;-73
2022/05/22 09:05:15;;;;;;;3.33;1.10;;;;;;;20.43;37.56;99653.75;4183796;34;34519;-74
2022/05/22 09:08:08;;;;;;;4.12;1.10;;;;;;;20.46;36.13;99647.44;4182891;34;35112;-73
2022/05/22 09:11:08;;;;;;;4.10;0.82;;;;;;;20.42;35.92;99652.94;4184851;34;34993;-73
2022/05/22 09:14:17;;;;;;;2.70;0.80;;;;;;;20.56;36.44;99644.03;4191698;34;35750;-73
2022/05/22 09:17:18;;;;;;;6.10;1.00;;;;;;;21.29;36.43;99626.94;4185172;34;33945;-74
2022/05/22 09:20:20;;;;;;;4.25;0.95;;;;;;;20.22;35.90;99635.59;4194096;34;34604;-72
2022/05/22 09:23:25;;;;;;;3.72;0.82;;;;;;;20.49;36.82;99635.56;4184814;34;33711;-73
2022/05/22 09:26:52;;;;;;;5.20;0.82;;;;;;;20.91;35.90;99622.56;4187006;34;34563;-73
2022/05/22 09:30:00;;;;;;;2.28;1.10;;;;;;;21.51;34.55;99631.53;4182830;34;33962;-73
2022/05/22 09:33:22;;;;;;;3.28;0.93;;;;;;;21.42;33.90;99616.31;4185873;34;35209;-73
2022/05/22 09:36:37;;;;;;;3.30;0.90;;;;;;;20.97;34.49;99616.25;4183687;34;34575;-74
2022/05/22 09:40:24;;;;;;;3.53;1.10;;;;;;;21.38;35.48;99613.50;4184851;34;33586;-73
2022/05/22 09:43:26;;;;;;;4.15;1.00;;;;;;;21.74;35.73;99613.78;4169746;34;34360;-74
2022/05/22 09:46:44;;;;;;;6.47;1.05;;;;;;;21.88;35.29;99621.47;4194676;34;34629;-75
2022/05/22 09:49:37;;;;;;;3.35;0.90;;;;;;;21.41;34.66;99609.16;4185210;34;34917;-74
2022/05/22 09:52:31;;;;;;;5.07;0.80;;;;;;;20.72;35.24;99609.59;4185639;34;34914;-73
2022/05/22 09:55:42;;;;;;;3.87;1.05;;;;;;;20.93;34.87;99603.50;4184248;34;34455;-75
2022/05/22 09:58:45;;;;;;;3.20;0.85;;;;;;;21.53;33.64;99609.66;4183590;34;34229;-74
2022/05/22 10:01:39;;;;;;;3.15;1.17;;;;;;;21.32;33.79;99598.31;4186134;34;35931;-73
2022/05/22 10:04:40;;;;;;;2.78;0.90;;;;;;;21.61;34.43;99599.38;4183651;34;34480;-76
2022/05/22 10:07:45;;;;;;;4.45;1.10;;;;;;;21.49;33.38;99611.63;4184503;34;34969;-75
2022/05/22 10:10:44;;;;;;;4.28;1.00;;;;;;;21.71;33.40;99609.00;4191771;34;36041;-74
2022/05/22 10:13:31;;;;;;;3.22;1.00;;;;;;;21.56;33.49;99603.31;4192099;34;35910;-74
2022/05/22 10:16:26;;;;;;;4.40;0.77;;;;;;;21.07;35.07;99590.50;4184041;34;33697;-74
2022/05/22 10:19:13;;;;;;;7.62;1.52;;;;;;;21.55;34.06;99601.72;4181268;34;34012;-74
2022/05/22 10:22:30;;;;;;;3.20;1.00;;;;;;;21.62;33.87;99586.22;4184868;34;34632;-75
2022/05/22 10:25:50;;;;;;;3.42;0.85;;;;;;;21.64;33.79;99584.66;4185225;34;34834;-74
2022/05/22 10:28:47;;;;;;;5.05;0.90;;;;;;;21.67;34.46;99586.66;4185913;34;34935;-74
2022/05/22 10:32:03;;;;;;;4.40;1.70;;;;;;;21.79;33.00;99577.97;4183673;34;34320;-74
2022/05/22 10:35:03;;;;;;;3.72;0.82;;;;;;;21.42;33.72;99558.59;4184054;34;34621;-74
2022/05/22 10:37:59;;;;;;;1.77;0.90;;;;;;;22.24;31.52;99566.72;4194103;34;36158;-74
2022/05/22 10:43:55;;;;;;;2.53;0.93;;;;;;;21.97;32.79;99553.00;4184750;34;34493;-74
2022/05/22 10:46:50;;;;;;;3.50;1.00;;;;;;;21.89;32.69;99568.09;4182172;34;34620;-73
2022/05/22 10:49:43;;;;;;;3.30;0.90;;;;;;;22.09;31.93;99551.06;4182439;34;36185;-76
2022/05/22 10:52:33;;;;;;;5.82;1.10;;;;;;;22.17;32.26;99558.25;4182270;34;35766;-74
2022/05/22 10:55:34;;;;;;;5.80;1.02;;;;;;;22.32;32.04;99559.97;4194924;34;35342;-74
2022/05/22 10:58:23;;;;;;;7.37;1.20;;;;;;;22.22;32.07;99567.09;4194792;34;35226;-74
2022/05/22 11:01:16;;;;;;;4.50;1.10;;;;;;;22.35;32.61;99564.78;4192398;34;34968;-74
2022/05/22 11:04:06;;;;;;;3.80;0.95;;;;;;;22.36;32.20;99571.16;4186577;34;34969;-75
2022/05/22 11:06:53;;;;;;;3.95;1.00;;;;;;;22.27;33.18;99573.50;4183607;34;35228;-75
2022/05/22 11:09:50;;;;;;;5.62;1.00;;;;;;;22.68;31.88;99571.25;4191545;34;34606;-74
2022/05/22 11:12:37;;;;;;;7.85;1.23;;;;;;;22.85;33.66;99567.72;4184093;34;35988;-73
2022/05/22 11:15:33;;;;;;;10.75;2.25;;;;;;;22.05;33.34;99573.34;4185765;34;34367;-76
2022/05/22 11:18:21;;;;;;;3.67;0.90;;;;;;;21.00;33.59;99564.56;4185393;34;35275;-75
2022/05/22 11:21:13;;;;;;;2.90;0.98;;;;;;;21.29;33.31;99562.84;4186199;34;34699;-74
2022/05/22 11:24:14;;;;;;;4.37;1.10;;;;;;;21.94;33.07;99553.78;4184900;34;35066;-75
2022/05/22 11:27:23;;;;;;;5.22;1.02;;;;;;;22.35;31.99;99548.03;4183072;34;33902;-74
2022/05/22 11:30:28;;;;;;;4.82;1.12;;;;;;;22.09;32.43;99557.44;4183542;34;34932;-74
2022/05/22 11:33:39;;;;;;;2.70;0.80;;;;;;;21.61;32.70;99549.19;4184141;34;35563;-74
2022/05/22 11:36:50;;;;;;;4.03;1.00;;;;;;;21.89;32.38;99550.56;4185699;34;34963;-77
2022/05/22 11:40:04;;;;;;;3.87;1.10;;;;;;;21.75;32.86;99559.63;4185514;34;34542;-73
2022/05/22 11:43:31;;;;;;;5.47;1.10;;;;;;;21.83;33.38;99544.56;4182512;34;35397;-74
2022/05/22 11:46:20;;;;;;;3.47;1.10;;;;;;;23.05;32.57;99534.66;4191803;34;33703;-74
2022/05/22 11:49:25;;;;;;;1.98;0.95;;;;;;;22.68;32.20;99535.78;4182421;34;35034;-75
2022/05/22 11:52:55;;;;;;;2.35;0.95;;;;;;;23.51;32.57;99533.84;4185268;34;34652;-74
2022/05/22 11:55:59;;;;;;;3.60;1.40;;;;;;;22.86;32.22;99524.62;4184671;34;34186;-74
2022/05/22 11:58:55;;;;;;;2.95;0.90;;;;;;;22.97;31.57;99530.25;4185780;34;34323;-79
2022/05/22 12:01:58;;;;;;;11.73;1.35;;;;;;;22.01;32.48;99523.13;4185620;34;34415;-74
2022/05/22 12:04:53;;;;;;;2.42;0.98;;;;;;;22.60;32.37;99506.22;4192666;34;34499;-73
2022/05/22 12:08:03;;;;;;;2.92;1.00;;;;;;;23.52;30.06;99509.47;4194483;34;33692;-75
2022/05/22 12:11:18;;;;;;;5.70;0.98;;;;;;;23.48;30.60;99505.87;4192301;34;34576;-76
2022/05/22 12:14:16;;;;;;;3.83;0.90;;;;;;;23.06;30.98;99513.91;4193852;34;34562;-75
2022/05/22 12:17:28;;;;;;;2.17;0.88;;;;;;;22.58;30.35;99496.66;4185628;34;34461;-76
2022/05/22 12:20:23;;;;;;;2.87;0.80;;;;;;;22.16;31.87;99498.87;4193143;34;34358;-75
2022/05/22 12:23:19;;;;;;;2.20;0.82;;;;;;;22.51;32.08;99494.62;4183388;34;33622;-75
2022/05/22 12:26:07;;;;;;;5.20;1.20;;;;;;;22.76;32.39;99493.88;4184684;34;34568;-76
2022/05/22 12:29:10;;;;;;;2.83;1.12;;;;;;;22.13;32.32;99490.50;4184573;34;36633;-73
2022/05/22 12:31:59;;;;;;;5.60;1.20;;;;;;;22.44;32.95;99486.25;4184114;34;35224;-75
2022/05/22 12:34:50;;;;;;;3.50;1.15;;;;;;;22.47;31.58;99487.44;4181903;34;34296;-75
2022/05/22 12:37:40;;;;;;;2.50;0.90;;;;;;;22.71;31.12;99488.69;4183793;34;36067;-75
2022/05/22 12:40:39;;;;;;;2.63;0.80;;;;;;;23.25;30.88;99492.31;4187021;34;35869;-75
2022/05/22 12:43:26;;;;;;;4.37;0.90;;;;;;;22.96;30.88;99483.94;4186592;34;34975;-74
2022/05/22 12:46:13;;;;;;;4.47;1.00;;;;;;;22.80;31.22;99489.91;4192933;34;34540;-74
2022/05/22 12:49:20;;;;;;;3.62;1.70;;;;;;;23.18;30.82;99490.34;4171996;34;36025;-75
2022/05/22 12:52:13;;;;;;;1.92;0.95;;;;;;;23.67;31.54;99485.88;4184326;34;34205;-75
2022/05/22 12:55:01;;;;;;;3.03;0.90;;;;;;;22.61;30.34;99479.09;4185662;34;32504;-75
2022/05/22 12:57:55;;;;;;;3.62;1.00;;;;;;;23.28;30.55;99477.53;4182519;34;34765;-75
2022/05/22 13:00:47;;;;;;;4.57;0.90;;;;;;;24.14;30.59;99480.94;4185696;34;34917;-76
2022/05/22 13:03:36;;;;;;;4.90;1.02;;;;;;;24.04;31.26;99475.41;4185911;34;34559;-77
2022/05/22 13:06:29;;;;;;;5.53;1.42;;;;;;;24.24;31.10;99476.50;4183173;34;34470;-76
2022/05/22 13:09:34;;;;;;;2.47;0.85;;;;;;;23.48;31.26;99461.97;4173605;34;34174;-77
2022/05/22 13:12:27;;;;;;;2.37;1.10;;;;;;;24.15;31.72;99462.94;4194963;34;34559;-76
2022/05/22 13:15:16;;;;;;;3.08;1.20;;;;;;;22.03;33.56;99464.16;4184915;34;34461;-75
2022/05/22 13:18:11;;;;;;;3.42;1.15;;;;;;;21.58;33.80;99466.31;4175855;34;34242;-75
2022/05/22 13:21:02;;;;;;;6.37;1.30;;;;;;;21.49;33.63;99463.88;4185531;34;34812;-73
2022/05/22 13:24:01;;;;;;;4.35;0.90;;;;;;;21.85;34.14;99457.69;4174618;34;35658;-75
2022/05/22 13:27:21;;;;;;;4.00;1.23;;;;;;;22.18;32.06;99454.66;4184039;34;33560;-75
2022/05/22 13:30:16;;;;;;;3.80;1.08;;;;;;;22.41;31.73;99447.94;4184486;34;35291;-75
2022/05/22 13:33:05;;;;;;;6.18;1.10;;;;;;;23.08;32.00;99450.03;4187082;34;34681;-76
2022/05/22 13:35:58;;;;;;;3.65;1.00;;;;;;;23.17;31.79;99446.84;4195618;34;33758;-77
2022/05/22 13:38:45;;;;;;;4.62;1.20;;;;;;;22.71;31.94;99425.22;4185215;34;34411;-76
2022/05/22 13:42:10;;;;;;;3.37;0.85;;;;;;;22.13;33.09;99420.75;4176440;34;35324;-77
2022/05/22 13:45:14;;;;;;;2.15;0.90;;;;;;;22.58;32.10;99426.84;4182351;34;34353;-74